Time;durP1;ratioP1;P1;durP2;ratioP2;P2;SDS_P1;SDS_P2;PMS_P1;PMS_P2;Temp;Humidity;BMP_temperature;BMP_pressure;BME280_temperature;BME280_humidity;BME280_pressure;Samples;Min_cycle;Max_cycle;Signal;HPM_P1;HPM_P2
2021/10/01 00:00:36;;;;;;;;;;;;;;;;;;2103722;28;3797;-67
2021/10/01 00:01:36;;;;;;;;;;;;;;;;;;2104546;27;3460;-68
2021/10/01 00:02:37;;;;;;;;;;;;;;;;;;2105336;28;4159;-68
2021/10/01 00:03:37;;;;;;;;;;;;;;;;;;2105914;27;2075;-68
2021/10/01 00:04:38;;;;;;;;;;;;;;;;;;2105229;28;4732;-68
2021/10/01 00:05:39;;;;;;;;;;;;;;;;;;2106262;28;1323;-68
2021/10/01 00:06:40;;;;;;;;;;;;;;;;;;2104209;28;4667;-66
2021/10/01 00:07:40;;;;;;;;;;;;;;;;;;2105286;28;4125;-68
2021/10/01 00:08:41;;;;;;;;;;;;;;;;;;2102422;28;4391;-67
2021/10/01 00:09:42;;;;;;;;;;;;;;;;;;2103760;28;4041;-67
2021/10/01 00:10:42;;;;;;;;;;;;;;;;;;2103766;28;4152;-67
2021/10/01 00:11:49;;;;;;;;;;;;;;;;;;2106043;28;1196;-67
2021/10/01 00:12:50;;;;;;;;;;;;;;;;;;2106285;28;1307;-67
2021/10/01 00:13:50;;;;;;;;;;;;;;;;;;2105126;28;3384;-67
2021/10/01 00:14:51;;;;;;;;;;;;;;;;;;2102196;28;4837;-66
2021/10/01 00:15:51;;;;;;;;;;;;;;;;;;2104367;28;3801;-67
2021/10/01 00:16:52;;;;;;;;;;;;;;;;;;2103580;27;4561;-68
2021/10/01 00:17:53;;;;;;;;;;;;;;;;;;2106322;28;1165;-67
2021/10/01 00:18:54;;;;;;;;;;;;;;;;;;2102239;27;4533;-66
2021/10/01 00:19:54;;;;;;;;;;;;;;;;;;2103391;28;4860;-67
2021/10/01 00:20:55;;;;;;;;;;;;;;;;;;2102911;28;4811;-67
2021/10/01 00:21:55;;;;;;;;;;;;;;;;;;2105372;28;4372;-68
2021/10/01 00:22:57;;;;;;;;;;;;;;;;;;2105589;28;2137;-68
2021/10/01 00:23:57;;;;;;;;;;;;;;;;;;2105417;28;1360;-67
2021/10/01 00:24:58;;;;;;;;;;;;;;;;;;2104152;28;5016;-66
2021/10/01 00:25:58;;;;;;;;;;;;;;;;;;2103211;28;4297;-68
2021/10/01 00:26:59;;;;;;;;;;;;;;;;;;2104061;28;4298;-68
2021/10/01 00:28:00;;;;;;;;;;;;;;;;;;2106248;28;1044;-68
2021/10/01 00:29:01;;;;;;;;;;;;;;;;;;2102655;28;4864;-68
2021/10/01 00:30:01;;;;;;;;;;;;;;;;;;2104503;27;2413;-67
2021/10/01 00:31:02;;;;;;;;;;;;;;;;;;2106243;28;1192;-67
2021/10/01 00:32:02;;;;;;;;;;;;;;;;;;2105762;28;1173;-68
2021/10/01 00:33:05;;;;;;;;;;;;;;;;;;2104590;28;4217;-67
2021/10/01 00:34:06;;;;;;;;;;;;;;;;;;2106149;28;1182;-67
2021/10/01 00:35:07;;;;;;;;;;;;;;;;;;2102901;28;3666;-68
2021/10/01 00:36:07;;;;;;;;;;;;;;;;;;2105103;28;1095;-66
2021/10/01 00:37:08;;;;;;;;;;;;;;;;;;2106466;28;1108;-67
2021/10/01 00:38:08;;;;;;;;;;;;;;;;;;2105367;28;4739;-68
2021/10/01 00:39:12;;;;;;;;;;;;;;;;;;2102779;28;4683;-68
2021/10/01 00:40:12;;;;;;;;;;;;;;;;;;2105357;28;4016;-68
2021/10/01 00:41:13;;;;;;;;;;;;;;;;;;2105667;28;1090;-68
2021/10/01 00:42:13;;;;;;;;;;;;;;;;;;2104762;28;2710;-66
2021/10/01 00:43:17;;;;;;;;;;;;;;;;;;2105963;28;1109;-67
2021/10/01 00:44:17;;;;;;;;;;;;;;;;;;2105224;28;3486;-68
2021/10/01 00:45:18;;;;;;;;;;;;;;;;;;2104120;28;4465;-68
2021/10/01 00:46:18;;;;;;;;;;;;;;;;;;2104557;28;3540;-67
2021/10/01 00:47:19;;;;;;;;;;;;;;;;;;2104516;28;4354;-67
2021/10/01 00:48:19;;;;;;;;;;;;;;;;;;2103492;28;4779;-67
2021/10/01 00:49:20;;;;;;;;;;;;;;;;;;2104047;28;4871;-67
2021/10/01 00:50:20;;;;;;;;;;;;;;;;;;2103494;27;4840;-68
2021/10/01 00:51:22;;;;;;;;;;;;;;;;;;2104224;28;2570;-68
2021/10/01 00:52:22;;;;;;;;;;;;;;;;;;2104740;28;2736;-67
2021/10/01 00:53:23;;;;;;;;;;;;;;;;;;2103163;28;4198;-66
2021/10/01 00:54:23;;;;;;;;;;;;;;;;;;2103698;28;3856;-68
2021/10/01 00:55:24;;;;;;;;;;;;;;;;;;2104610;28;1371;-68
2021/10/01 00:56:24;;;;;;;;;;;;;;;;;;2102864;28;4516;-68
2021/10/01 00:57:26;;;;;;;;;;;;;;;;;;2103435;28;4481;-68
2021/10/01 00:58:26;;;;;;;;;;;;;;;;;;2102477;28;4175;-67
2021/10/01 00:59:28;;;;;;;;;;;;;;;;;;2103988;28;1285;-68
2021/10/01 01:00:28;;;;;;;;;;;;;;;;;;2102746;28;4466;-68
2021/10/01 01:01:29;;;;;;;;;;;;;;;;;;2103835;28;1376;-67
2021/10/01 01:02:29;;;;;;;;;;;;;;;;;;2103372;28;3905;-66
2021/10/01 01:03:30;;;;;;;;;;;;;;;;;;2103711;28;5016;-67
2021/10/01 01:04:30;;;;;;;;;;;;;;;;;;2102956;28;1336;-68
2021/10/01 01:05:31;;;;;;;;;;;;;;;;;;2102047;28;4186;-66
2021/10/01 01:06:31;;;;;;;;;;;;;;;;;;2101623;27;4213;-66
2021/10/01 01:07:33;;;;;;;;;;;;;;;;;;2102009;28;1340;-67
2021/10/01 01:08:33;;;;;;;;;;;;;;;;;;2101750;28;4679;-67
2021/10/01 01:09:34;;;;;;;;;;;;;;;;;;2101843;28;4248;-67
2021/10/01 01:10:38;;;;;;;;;;;;;;;;;;2101497;28;3867;-68
2021/10/01 01:11:39;;;;;;;;;;;;;;;;;;2102260;28;1580;-66
2021/10/01 01:12:39;;;;;;;;;;;;;;;;;;2099964;28;1450;-68
2021/10/01 01:13:40;;;;;;;;;;;;;;;;;;2099443;28;2958;-68
2021/10/01 01:14:40;;;;;;;;;;;;;;;;;;2099814;28;1142;-67
2021/10/01 01:15:42;;;;;;;;;;;;;;;;;;2100331;28;1642;-66
2021/10/01 01:16:42;;;;;;;;;;;;;;;;;;2100244;28;4588;-66
2021/10/01 01:17:43;;;;;;;;;;;;;;;;;;2100501;28;1108;-67
2021/10/01 01:18:43;;;;;;;;;;;;;;;;;;2098531;28;4647;-68
2021/10/01 01:19:44;;;;;;;;;;;;;;;;;;2100690;28;3647;-68
2021/10/01 01:20:44;;;;;;;;;;;;;;;;;;2099508;28;4202;-67
2021/10/01 01:21:45;;;;;;;;;;;;;;;;;;2100176;28;4226;-67
2021/10/01 01:22:45;;;;;;;;;;;;;;;;;;2100463;28;2262;-68
2021/10/01 01:23:46;;;;;;;;;;;;;;;;;;2101147;28;1079;-67
2021/10/01 01:24:46;;;;;;;;;;;;;;;;;;2099690;28;4872;-67
2021/10/01 01:25:47;;;;;;;;;;;;;;;;;;2098804;27;4009;-66
2021/10/01 01:26:48;;;;;;;;;;;;;;;;;;2100339;28;4140;-66
2021/10/01 01:27:49;;;;;;;;;;;;;;;;;;2100882;28;1255;-67
2021/10/01 01:28:49;;;;;;;;;;;;;;;;;;2099493;28;4375;-68
2021/10/01 01:29:50;;;;;;;;;;;;;;;;;;2099149;28;4289;-66
2021/10/01 01:30:50;;;;;;;;;;;;;;;;;;2097944;28;4981;-67
2021/10/01 01:31:53;;;;;;;;;;;;;;;;;;2099565;27;4504;-67
2021/10/01 01:32:54;;;;;;;;;;;;;;;;;;2097875;28;4860;-67
2021/10/01 01:33:55;;;;;;;;;;;;;;;;;;2101515;28;1168;-67
2021/10/01 01:34:55;;;;;;;;;;;;;;;;;;2101941;28;1087;-67
2021/10/01 01:35:56;;;;;;;;;;;;;;;;;;2100053;28;4731;-67
2021/10/01 01:36:56;;;;;;;;;;;;;;;;;;2100808;28;4545;-67
2021/10/01 01:37:57;;;;;;;;;;;;;;;;;;2100970;27;1257;-67
2021/10/01 01:38:57;;;;;;;;;;;;;;;;;;2099842;28;4434;-67
2021/10/01 01:39:58;;;;;;;;;;;;;;;;;;2100870;28;3537;-67
2021/10/01 01:40:58;;;;;;;;;;;;;;;;;;2102026;28;1091;-68
2021/10/01 01:42:00;;;;;;;;;;;;;;;;;;2101034;28;4458;-67
2021/10/01 01:43:03;;;;;;;;;;;;;;;;;;2096556;28;4741;-67
2021/10/01 01:44:03;;;;;;;;;;;;;;;;;;2101541;28;4287;-67
2021/10/01 01:45:04;;;;;;;;;;;;;;;;;;2100682;28;4048;-68
2021/10/01 01:46:04;;;;;;;;;;;;;;;;;;2100594;28;3863;-66
2021/10/01 01:47:05;;;;;;;;;;;;;;;;;;2101775;28;1197;-67
2021/10/01 01:48:05;;;;;;;;;;;;;;;;;;2101508;28;2935;-68
2021/10/01 01:49:07;;;;;;;;;;;;;;;;;;2101445;28;3831;-67
2021/10/01 01:50:07;;;;;;;;;;;;;;;;;;2101498;28;4195;-67
2021/10/01 01:51:08;;;;;;;;;;;;;;;;;;2102164;28;4272;-66
2021/10/01 01:52:08;;;;;;;;;;;;;;;;;;2101887;28;3639;-68
2021/10/01 01:53:09;;;;;;;;;;;;;;;;;;2100540;28;4634;-67
2021/10/01 01:54:11;;;;;;;;;;;;;;;;;;2102048;28;3353;-66
2021/10/01 01:55:12;;;;;;;;;;;;;;;;;;2102482;28;3564;-68
2021/10/01 01:56:13;;;;;;;;;;;;;;;;;;2103093;28;1129;-67
2021/10/01 01:57:13;;;;;;;;;;;;;;;;;;2102943;28;1186;-67
2021/10/01 01:58:14;;;;;;;;;;;;;;;;;;2102772;27;2673;-68
2021/10/01 01:59:14;;;;;;;;;;;;;;;;;;2100019;28;4483;-67
2021/10/01 02:00:15;;;;;;;;;;;;;;;;;;2101966;28;4852;-66
2021/10/01 02:01:15;;;;;;;;;;;;;;;;;;2104096;28;1850;-66
2021/10/01 02:02:17;;;;;;;;;;;;;;;;;;2104004;28;1501;-66
2021/10/01 02:03:17;;;;;;;;;;;;;;;;;;2102607;28;3488;-67
2021/10/01 02:04:18;;;;;;;;;;;;;;;;;;2105318;28;1253;-67
2021/10/01 02:05:18;;;;;;;;;;;;;;;;;;2104646;28;1396;-67
2021/10/01 02:06:19;;;;;;;;;;;;;;;;;;2105025;28;1154;-66
2021/10/01 02:07:19;;;;;;;;;;;;;;;;;;2102945;28;4246;-68
2021/10/01 02:08:23;;;;;;;;;;;;;;;;;;2103328;28;3937;-68
2021/10/01 02:09:23;;;;;;;;;;;;;;;;;;2102329;27;3955;-66
2021/10/01 02:10:24;;;;;;;;;;;;;;;;;;2104416;28;4427;-68
2021/10/01 02:11:24;;;;;;;;;;;;;;;;;;2104190;27;1376;-67
2021/10/01 02:12:25;;;;;;;;;;;;;;;;;;2104876;28;1185;-66
2021/10/01 02:13:25;;;;;;;;;;;;;;;;;;2102447;28;3702;-67
2021/10/01 02:14:26;;;;;;;;;;;;;;;;;;2103517;27;3998;-68
2021/10/01 02:15:26;;;;;;;;;;;;;;;;;;2104217;27;1197;-67
2021/10/01 02:16:27;;;;;;;;;;;;;;;;;;2104777;28;1201;-66
2021/10/01 02:17:28;;;;;;;;;;;;;;;;;;2104181;28;1304;-67
2021/10/01 02:18:29;;;;;;;;;;;;;;;;;;2102390;27;4757;-67
2021/10/01 02:19:29;;;;;;;;;;;;;;;;;;2100358;28;4284;-67
2021/10/01 02:20:30;;;;;;;;;;;;;;;;;;2103214;28;4406;-68
2021/10/01 02:21:30;;;;;;;;;;;;;;;;;;2102492;28;3317;-66
2021/10/01 02:22:31;;;;;;;;;;;;;;;;;;2103219;28;4669;-67
2021/10/01 02:23:31;;;;;;;;;;;;;;;;;;2104592;28;1055;-67
2021/10/01 02:24:32;;;;;;;;;;;;;;;;;;2103914;28;1093;-67
2021/10/01 02:26:53;;;;;;;;;;;;;;;;;;2103169;28;4589;-67
2021/10/01 02:27:54;;;;;;;;;;;;;;;;;;2102290;28;4475;-67
2021/10/01 02:28:57;;;;;;;;;;;;;;;;;;2102318;28;4619;-68
2021/10/01 02:29:58;;;;;;;;;;;;;;;;;;2101882;28;4903;-66
2021/10/01 02:30:58;;;;;;;;;;;;;;;;;;2103165;28;5009;-66
2021/10/01 02:31:59;;;;;;;;;;;;;;;;;;2103557;28;4788;-68
2021/10/01 02:32:59;;;;;;;;;;;;;;;;;;2102776;27;4794;-66
2021/10/01 02:34:00;;;;;;;;;;;;;;;;;;2103308;28;4426;-66
2021/10/01 02:35:02;;;;;;;;;;;;;;;;;;2102003;28;4778;-67
2021/10/01 02:36:02;;;;;;;;;;;;;;;;;;2104049;28;1029;-68
2021/10/01 02:37:05;;;;;;;;;;;;;;;;;;2102735;28;2315;-68
2021/10/01 02:38:05;;;;;;;;;;;;;;;;;;2103044;28;4313;-67
2021/10/01 02:39:06;;;;;;;;;;;;;;;;;;2102772;28;4518;-67
2021/10/01 02:40:06;;;;;;;;;;;;;;;;;;2101167;28;4315;-67
2021/10/01 02:41:08;;;;;;;;;;;;;;;;;;2104894;28;1184;-67
2021/10/01 02:42:08;;;;;;;;;;;;;;;;;;2101742;28;4457;-67
2021/10/01 02:43:09;;;;;;;;;;;;;;;;;;2098915;28;4559;-67
2021/10/01 02:44:09;;;;;;;;;;;;;;;;;;2100591;27;4665;-67
2021/10/01 02:45:10;;;;;;;;;;;;;;;;;;2101156;28;4907;-68
2021/10/01 02:46:10;;;;;;;;;;;;;;;;;;2098264;28;4665;-68
2021/10/01 02:47:11;;;;;;;;;;;;;;;;;;2097630;28;6169;-67
2021/10/01 02:48:11;;;;;;;;;;;;;;;;;;2098547;28;1841;-67
2021/10/01 02:49:12;;;;;;;;;;;;;;;;;;2097660;28;4446;-67
2021/10/01 02:50:12;;;;;;;;;;;;;;;;;;2098332;28;1929;-68
2021/10/01 02:51:14;;;;;;;;;;;;;;;;;;2096894;28;4513;-68
2021/10/01 02:52:14;;;;;;;;;;;;;;;;;;2097878;28;4455;-66
2021/10/01 02:53:15;;;;;;;;;;;;;;;;;;2098194;28;4449;-66
2021/10/01 02:54:15;;;;;;;;;;;;;;;;;;2095939;28;5026;-68
2021/10/01 02:55:16;;;;;;;;;;;;;;;;;;2096722;28;4597;-67
2021/10/01 02:56:16;;;;;;;;;;;;;;;;;;2097260;28;6117;-67
2021/10/01 02:57:18;;;;;;;;;;;;;;;;;;2095082;28;4815;-67
2021/10/01 02:58:18;;;;;;;;;;;;;;;;;;2095072;28;4664;-67
2021/10/01 02:59:19;;;;;;;;;;;;;;;;;;2095464;28;4445;-66
2021/10/01 03:00:19;;;;;;;;;;;;;;;;;;2096854;28;2075;-66
2021/10/01 03:01:20;;;;;;;;;;;;;;;;;;2096891;28;4627;-67
2021/10/01 03:02:20;;;;;;;;;;;;;;;;;;2094827;28;5677;-67
2021/10/01 03:03:22;;;;;;;;;;;;;;;;;;2095007;28;5619;-66
2021/10/01 03:04:22;;;;;;;;;;;;;;;;;;2096466;28;4520;-66
2021/10/01 03:05:23;;;;;;;;;;;;;;;;;;2096335;28;5015;-67
2021/10/01 03:06:23;;;;;;;;;;;;;;;;;;2098095;28;5310;-66
2021/10/01 03:07:24;;;;;;;;;;;;;;;;;;2099138;28;1099;-68
2021/10/01 03:08:24;;;;;;;;;;;;;;;;;;2096629;28;5685;-67
2021/10/01 03:09:27;;;;;;;;;;;;;;;;;;2097049;28;4605;-66
2021/10/01 03:10:27;;;;;;;;;;;;;;;;;;2097235;28;5051;-66
2021/10/01 03:11:28;;;;;;;;;;;;;;;;;;2096491;27;6412;-67
2021/10/01 03:12:28;;;;;;;;;;;;;;;;;;2098784;28;2592;-67
2021/10/01 03:13:29;;;;;;;;;;;;;;;;;;2098314;28;4844;-67
2021/10/01 03:14:29;;;;;;;;;;;;;;;;;;2095060;28;5551;-67
2021/10/01 03:15:31;;;;;;;;;;;;;;;;;;2096819;28;4968;-68
2021/10/01 03:16:31;;;;;;;;;;;;;;;;;;2100130;28;2012;-67
2021/10/01 03:17:32;;;;;;;;;;;;;;;;;;2099645;28;3336;-67
2021/10/01 03:18:35;;;;;;;;;;;;;;;;;;2099378;28;1223;-66
2021/10/01 03:19:36;;;;;;;;;;;;;;;;;;2098306;28;1254;-67
2021/10/01 03:20:36;;;;;;;;;;;;;;;;;;2098309;28;987;-68
2021/10/01 03:21:37;;;;;;;;;;;;;;;;;;2099456;28;1926;-66
2021/10/01 03:22:37;;;;;;;;;;;;;;;;;;2099542;28;1016;-67
2021/10/01 03:23:38;;;;;;;;;;;;;;;;;;2099638;28;1009;-67
2021/10/01 03:24:38;;;;;;;;;;;;;;;;;;2096345;28;1356;-66
2021/10/01 03:25:39;;;;;;;;;;;;;;;;;;2098519;28;1196;-66
2021/10/01 03:26:40;;;;;;;;;;;;;;;;;;2099095;28;1071;-68
2021/10/01 03:27:41;;;;;;;;;;;;;;;;;;2099360;28;1226;-68
2021/10/01 03:28:41;;;;;;;;;;;;;;;;;;2098784;28;1016;-67
2021/10/01 03:29:42;;;;;;;;;;;;;;;;;;2099166;28;1354;-67
2021/10/01 03:30:42;;;;;;;;;;;;;;;;;;2098582;28;1980;-68
2021/10/01 03:31:43;;;;;;;;;;;;;;;;;;2100129;28;1257;-67
2021/10/01 03:32:43;;;;;;;;;;;;;;;;;;2099649;28;1090;-66
2021/10/01 03:33:44;;;;;;;;;;;;;;;;;;2099712;28;2091;-66
2021/10/01 03:34:44;;;;;;;;;;;;;;;;;;2100740;28;1371;-67
2021/10/01 03:35:46;;;;;;;;;;;;;;;;;;2100257;28;1868;-67
2021/10/01 03:36:47;;;;;;;;;;;;;;;;;;2101982;28;1256;-67
2021/10/01 03:37:47;;;;;;;;;;;;;;;;;;2102026;28;1048;-66
2021/10/01 03:38:48;;;;;;;;;;;;;;;;;;2101129;28;1211;-66
2021/10/01 03:39:48;;;;;;;;;;;;;;;;;;2101109;28;1245;-68
2021/10/01 03:40:49;;;;;;;;;;;;;;;;;;2101842;28;1170;-68
2021/10/01 03:42:40;;;;;;;;;;;;;;;;;;2124091;27;1791;-66
2021/10/01 03:43:42;;;;;;;;;;;;;;;;;;2118992;27;1525;-67
2021/10/01 03:44:43;;;;;;;;;;;;;;;;;;2118544;27;1754;-67
2021/10/01 03:45:44;;;;;;;;;;;;;;;;;;2118695;27;1257;-67
2021/10/01 03:46:44;;;;;;;;;;;;;;;;;;2120647;27;1200;-66
2021/10/01 03:47:45;;;;;;;;;;;;;;;;;;2120748;27;1172;-67
2021/10/01 03:48:45;;;;;;;;;;;;;;;;;;2119421;27;1351;-66
2021/10/01 03:49:46;;;;;;;;;;;;;;;;;;2115032;27;3699;-66
2021/10/01 03:50:46;;;;;;;;;;;;;;;;;;2110620;27;1200;-67
2021/10/01 03:51:48;;;;;;;;;;;;;;;;;;2110885;27;1145;-67
2021/10/01 03:52:48;;;;;;;;;;;;;;;;;;2110170;27;1263;-66
2021/10/01 03:53:49;;;;;;;;;;;;;;;;;;2110853;27;1196;-66
2021/10/01 03:54:51;;;;;;;;;;;;;;;;;;2110787;27;1164;-67
2021/10/01 03:55:52;;;;;;;;;;;;;;;;;;2110630;27;1071;-67
2021/10/01 03:56:52;;;;;;;;;;;;;;;;;;2109673;27;1608;-66
2021/10/01 03:57:54;;;;;;;;;;;;;;;;;;2109810;27;1240;-67
2021/10/01 03:58:54;;;;;;;;;;;;;;;;;;2111117;27;1034;-65
2021/10/01 03:59:55;;;;;;;;;;;;;;;;;;2110784;27;1315;-66
2021/10/01 04:00:55;;;;;;;;;;;;;;;;;;2110863;27;1092;-67
2021/10/01 04:01:56;;;;;;;;;;;;;;;;;;2111208;27;2024;-67
2021/10/01 04:02:56;;;;;;;;;;;;;;;;;;2111650;27;1111;-67
2021/10/01 04:03:57;;;;;;;;;;;;;;;;;;2112106;27;1057;-67
2021/10/01 04:04:57;;;;;;;;;;;;;;;;;;2111347;27;1116;-66
2021/10/01 04:05:58;;;;;;;;;;;;;;;;;;2110642;27;1190;-66
2021/10/01 04:07:00;;;;;;;;;;;;;;;;;;2111418;27;1360;-66
2021/10/01 04:08:01;;;;;;;;;;;;;;;;;;2110412;27;1106;-66
2021/10/01 04:09:01;;;;;;;;;;;;;;;;;;2107055;27;1385;-67
2021/10/01 04:10:02;;;;;;;;;;;;;;;;;;2105015;27;1300;-67
2021/10/01 04:11:02;;;;;;;;;;;;;;;;;;2106407;27;1260;-66
2021/10/01 04:12:03;;;;;;;;;;;;;;;;;;2106475;27;1408;-67
2021/10/01 04:13:03;;;;;;;;;;;;;;;;;;2107706;27;1183;-66
2021/10/01 04:14:04;;;;;;;;;;;;;;;;;;2104912;27;3640;-66
2021/10/01 04:15:05;;;;;;;;;;;;;;;;;;2106268;27;1267;-67
2021/10/01 04:16:06;;;;;;;;;;;;;;;;;;2105326;27;3499;-67
2021/10/01 04:17:06;;;;;;;;;;;;;;;;;;2105949;27;1086;-66
2021/10/01 04:18:07;;;;;;;;;;;;;;;;;;2106650;27;1069;-66
2021/10/01 04:19:08;;;;;;;;;;;;;;;;;;2105789;27;1093;-66
2021/10/01 04:20:08;;;;;;;;;;;;;;;;;;2106290;27;1492;-67
2021/10/01 04:21:09;;;;;;;;;;;;;;;;;;2106646;27;1196;-67
2021/10/01 04:22:09;;;;;;;;;;;;;;;;;;2106302;27;2454;-66
2021/10/01 04:23:10;;;;;;;;;;;;;;;;;;2106285;27;1173;-66
2021/10/01 04:24:11;;;;;;;;;;;;;;;;;;2106716;27;1154;-67
2021/10/01 04:25:12;;;;;;;;;;;;;;;;;;2106083;27;1098;-67
2021/10/01 04:26:13;;;;;;;;;;;;;;;;;;2106178;27;1114;-67
2021/10/01 04:27:13;;;;;;;;;;;;;;;;;;2106449;27;1114;-67
2021/10/01 04:28:14;;;;;;;;;;;;;;;;;;2106769;27;1170;-67
2021/10/01 04:29:15;;;;;;;;;;;;;;;;;;2107061;27;1169;-66
2021/10/01 04:30:15;;;;;;;;;;;;;;;;;;2107237;27;1428;-67
2021/10/01 04:31:16;;;;;;;;;;;;;;;;;;2106826;27;1274;-67
2021/10/01 04:32:16;;;;;;;;;;;;;;;;;;2106974;27;1201;-66
2021/10/01 04:33:20;;;;;;;;;;;;;;;;;;2106711;27;1091;-66
2021/10/01 04:34:21;;;;;;;;;;;;;;;;;;2107036;27;1402;-65
2021/10/01 04:35:22;;;;;;;;;;;;;;;;;;2105199;27;1381;-67
2021/10/01 04:36:26;;;;;;;;;;;;;;;;;;2107137;27;1384;-66
2021/10/01 04:37:26;;;;;;;;;;;;;;;;;;2106553;27;1226;-67
2021/10/01 04:38:27;;;;;;;;;;;;;;;;;;2107335;27;1253;-67
2021/10/01 04:39:28;;;;;;;;;;;;;;;;;;2106750;27;1311;-67
2021/10/01 04:40:28;;;;;;;;;;;;;;;;;;2107011;27;1233;-67
2021/10/01 04:41:29;;;;;;;;;;;;;;;;;;2106983;27;1177;-66
2021/10/01 04:42:30;;;;;;;;;;;;;;;;;;2107580;27;1914;-66
2021/10/01 04:43:31;;;;;;;;;;;;;;;;;;2108017;27;1218;-66
2021/10/01 04:44:31;;;;;;;;;;;;;;;;;;2107011;27;1058;-66
2021/10/01 04:45:32;;;;;;;;;;;;;;;;;;2106541;27;1236;-66
2021/10/01 04:46:32;;;;;;;;;;;;;;;;;;2106678;27;1391;-67
2021/10/01 04:47:33;;;;;;;;;;;;;;;;;;2107915;27;1352;-67
2021/10/01 04:48:33;;;;;;;;;;;;;;;;;;2107471;27;1205;-66
2021/10/01 04:49:34;;;;;;;;;;;;;;;;;;2106853;27;1352;-67
2021/10/01 04:50:35;;;;;;;;;;;;;;;;;;2107374;27;4109;-66
2021/10/01 04:51:35;;;;;;;;;;;;;;;;;;2107843;27;1114;-67
2021/10/01 04:52:37;;;;;;;;;;;;;;;;;;2108561;27;1087;-67
2021/10/01 04:53:37;;;;;;;;;;;;;;;;;;2102062;27;1035;-67
2021/10/01 04:54:38;;;;;;;;;;;;;;;;;;2102093;27;1100;-67
2021/10/01 04:55:38;;;;;;;;;;;;;;;;;;2102167;27;1041;-67
2021/10/01 04:56:39;;;;;;;;;;;;;;;;;;2102484;27;1173;-67
2021/10/01 04:57:41;;;;;;;;;;;;;;;;;;2102676;27;1573;-67
2021/10/01 04:58:42;;;;;;;;;;;;;;;;;;2101616;27;1332;-66
2021/10/01 04:59:42;;;;;;;;;;;;;;;;;;2103315;27;1315;-66
2021/10/01 05:00:43;;;;;;;;;;;;;;;;;;2103257;27;1120;-67
2021/10/01 05:01:43;;;;;;;;;;;;;;;;;;2103068;27;1905;-67
2021/10/01 05:02:44;;;;;;;;;;;;;;;;;;2103608;28;1212;-67
2021/10/01 05:03:44;;;;;;;;;;;;;;;;;;2103936;28;1070;-67
2021/10/01 05:04:47;;;;;;;;;;;;;;;;;;2103257;27;1142;-67
2021/10/01 05:05:47;;;;;;;;;;;;;;;;;;2104126;27;1138;-67
2021/10/01 05:06:48;;;;;;;;;;;;;;;;;;2104286;28;1106;-67
2021/10/01 05:07:48;;;;;;;;;;;;;;;;;;2103623;28;1446;-67
2021/10/01 05:08:49;;;;;;;;;;;;;;;;;;2103800;27;1072;-66
2021/10/01 05:09:52;;;;;;;;;;;;;;;;;;2103901;27;1386;-66
2021/10/01 05:10:53;;;;;;;;;;;;;;;;;;2104059;28;3258;-67
2021/10/01 05:11:53;;;;;;;;;;;;;;;;;;2104397;27;1232;-67
2021/10/01 05:12:54;;;;;;;;;;;;;;;;;;2104917;27;1167;-66
2021/10/01 05:13:54;;;;;;;;;;;;;;;;;;2104279;27;1160;-67
2021/10/01 05:14:57;;;;;;;;;;;;;;;;;;2104940;27;1243;-65
2021/10/01 05:15:57;;;;;;;;;;;;;;;;;;2104367;27;1075;-66
2021/10/01 05:16:59;;;;;;;;;;;;;;;;;;2104712;27;1044;-66
2021/10/01 05:17:59;;;;;;;;;;;;;;;;;;2105633;27;1071;-66
2021/10/01 05:19:00;;;;;;;;;;;;;;;;;;2105609;27;1379;-66
2021/10/01 05:20:00;;;;;;;;;;;;;;;;;;2103758;27;1942;-66
2021/10/01 05:21:03;;;;;;;;;;;;;;;;;;2105971;27;1157;-67
2021/10/01 05:22:03;;;;;;;;;;;;;;;;;;2105232;27;1901;-66
2021/10/01 05:23:04;;;;;;;;;;;;;;;;;;2105116;27;1383;-66
2021/10/01 05:24:04;;;;;;;;;;;;;;;;;;2105821;28;1965;-67
2021/10/01 05:25:05;;;;;;;;;;;;;;;;;;2104496;27;1673;-68
2021/10/01 05:26:06;;;;;;;;;;;;;;;;;;2104700;27;1091;-67
2021/10/01 05:27:07;;;;;;;;;;;;;;;;;;2105753;27;1030;-67
2021/10/01 05:28:08;;;;;;;;;;;;;;;;;;2104740;28;1155;-67
2021/10/01 05:29:08;;;;;;;;;;;;;;;;;;2104433;28;1199;-67
2021/10/01 05:30:09;;;;;;;;;;;;;;;;;;2104872;27;1268;-67
2021/10/01 05:31:10;;;;;;;;;;;;;;;;;;2103015;27;1271;-67
2021/10/01 05:32:10;;;;;;;;;;;;;;;;;;2104079;28;1514;-66
2021/10/01 05:33:13;;;;;;;;;;;;;;;;;;2104806;27;1152;-66
2021/10/01 05:34:16;;;;;;;;;;;;;;;;;;2104028;27;1608;-66
2021/10/01 05:35:17;;;;;;;;;;;;;;;;;;2103117;28;1077;-66
2021/10/01 05:36:18;;;;;;;;;;;;;;;;;;2104191;28;1344;-67
2021/10/01 05:37:18;;;;;;;;;;;;;;;;;;2103690;27;1164;-66
2021/10/01 05:38:19;;;;;;;;;;;;;;;;;;2103416;28;1021;-66
2021/10/01 05:39:20;;;;;;;;;;;;;;;;;;2103761;27;1392;-66
2021/10/01 05:40:20;;;;;;;;;;;;;;;;;;2104043;27;1000;-67
2021/10/01 05:41:21;;;;;;;;;;;;;;;;;;2104332;27;1504;-67
2021/10/01 05:42:21;;;;;;;;;;;;;;;;;;2103123;27;1925;-67
2021/10/01 05:43:24;;;;;;;;;;;;;;;;;;2104524;28;1118;-66
2021/10/01 05:44:25;;;;;;;;;;;;;;;;;;2104602;28;1253;-66
2021/10/01 05:45:26;;;;;;;;;;;;;;;;;;2104176;27;1333;-66
2021/10/01 05:46:27;;;;;;;;;;;;;;;;;;2103815;28;1044;-66
2021/10/01 05:47:28;;;;;;;;;;;;;;;;;;2103500;28;1190;-65
2021/10/01 05:48:31;;;;;;;;;;;;;;;;;;2103611;27;1075;-66
2021/10/01 05:49:37;;;;;;;;;;;;;;;;;;2103053;28;1379;-66
2021/10/01 05:50:42;;;;;;;;;;;;;;;;;;2100565;27;4438;-67
2021/10/01 05:51:47;;;;;;;;;;;;;;;;;;2104032;27;2369;-66
2021/10/01 05:52:56;;;;;;;;;;;;;;;;;;2102788;27;1596;-67
2021/10/01 05:54:13;;;;;;;;;;;;;;;;;;2103105;27;1173;-66
2021/10/01 05:55:14;;;;;;;;;;;;;;;;;;2102522;27;1076;-66
2021/10/01 05:56:14;;;;;;;;;;;;;;;;;;2101498;28;1049;-67
2021/10/01 05:57:15;;;;;;;;;;;;;;;;;;2100454;27;4442;-67
2021/10/01 05:58:17;;;;;;;;;;;;;;;;;;2101259;27;1201;-66
2021/10/01 05:59:18;;;;;;;;;;;;;;;;;;2100750;27;1002;-67
2021/10/01 06:00:19;;;;;;;;;;;;;;;;;;2100154;27;1518;-66
2021/10/01 06:01:19;;;;;;;;;;;;;;;;;;2100716;28;1099;-66
2021/10/01 06:02:20;;;;;;;;;;;;;;;;;;2101423;27;1910;-66
2021/10/01 06:03:20;;;;;;;;;;;;;;;;;;2100087;27;1856;-67
2021/10/01 06:04:22;;;;;;;;;;;;;;;;;;2100840;28;1560;-67
2021/10/01 06:05:23;;;;;;;;;;;;;;;;;;2099261;28;1201;-67
2021/10/01 06:06:23;;;;;;;;;;;;;;;;;;2101139;27;3237;-67
2021/10/01 06:07:24;;;;;;;;;;;;;;;;;;2101659;27;1284;-67
2021/10/01 06:08:24;;;;;;;;;;;;;;;;;;2101768;28;1231;-66
2021/10/01 06:09:25;;;;;;;;;;;;;;;;;;2101149;27;4487;-65
2021/10/01 06:10:26;;;;;;;;;;;;;;;;;;2101429;28;1377;-66
2021/10/01 06:11:26;;;;;;;;;;;;;;;;;;2101512;27;1469;-66
2021/10/01 06:12:27;;;;;;;;;;;;;;;;;;2102119;28;1103;-66
2021/10/01 06:13:28;;;;;;;;;;;;;;;;;;2101101;27;1881;-67
2021/10/01 06:14:29;;;;;;;;;;;;;;;;;;2101935;27;1285;-66
2021/10/01 06:15:30;;;;;;;;;;;;;;;;;;2102159;28;1281;-67
2021/10/01 06:16:30;;;;;;;;;;;;;;;;;;2100566;28;1371;-66
2021/10/01 06:17:31;;;;;;;;;;;;;;;;;;2101758;28;1153;-66
2021/10/01 06:18:31;;;;;;;;;;;;;;;;;;2101758;28;1925;-67
2021/10/01 06:19:33;;;;;;;;;;;;;;;;;;2101667;28;1334;-66
2021/10/01 06:20:34;;;;;;;;;;;;;;;;;;2102333;27;1757;-67
2021/10/01 06:21:35;;;;;;;;;;;;;;;;;;2102621;28;1108;-66
2021/10/01 06:22:35;;;;;;;;;;;;;;;;;;2103428;28;1990;-66
2021/10/01 06:23:36;;;;;;;;;;;;;;;;;;2102484;28;1189;-67
2021/10/01 06:24:36;;;;;;;;;;;;;;;;;;2103317;27;1185;-67
2021/10/01 06:25:37;;;;;;;;;;;;;;;;;;2102632;28;1119;-66
2021/10/01 06:26:37;;;;;;;;;;;;;;;;;;2101212;28;1136;-67
2021/10/01 06:27:39;;;;;;;;;;;;;;;;;;2103052;27;1142;-67
2021/10/01 06:28:39;;;;;;;;;;;;;;;;;;2103456;27;1384;-66
2021/10/01 06:29:40;;;;;;;;;;;;;;;;;;2103323;28;1371;-65
2021/10/01 06:30:40;;;;;;;;;;;;;;;;;;2104005;28;1063;-67
2021/10/01 06:31:41;;;;;;;;;;;;;;;;;;2103305;28;1048;-66
2021/10/01 06:32:41;;;;;;;;;;;;;;;;;;2103916;28;1084;-68
2021/10/01 06:33:43;;;;;;;;;;;;;;;;;;2102987;27;1366;-67
2021/10/01 06:34:44;;;;;;;;;;;;;;;;;;2103338;27;1336;-67
2021/10/01 06:35:44;;;;;;;;;;;;;;;;;;2103814;27;1580;-66
2021/10/01 06:36:45;;;;;;;;;;;;;;;;;;2103532;27;1142;-67
2021/10/01 06:37:46;;;;;;;;;;;;;;;;;;2103231;28;1280;-66
2021/10/01 06:38:47;;;;;;;;;;;;;;;;;;2103656;27;1165;-66
2021/10/01 06:39:48;;;;;;;;;;;;;;;;;;2104123;28;1289;-65
2021/10/01 06:40:48;;;;;;;;;;;;;;;;;;2104137;28;1265;-67
2021/10/01 06:41:49;;;;;;;;;;;;;;;;;;2104545;27;1465;-67
2021/10/01 06:42:51;;;;;;;;;;;;;;;;;;2103559;28;1989;-66
2021/10/01 06:43:57;;;;;;;;;;;;;;;;;;2104899;28;1157;-65
2021/10/01 06:45:02;;;;;;;;;;;;;;;;;;2099243;28;1149;-67
2021/10/01 06:46:05;;;;;;;;;;;;;;;;;;2098402;27;3977;-67
2021/10/01 06:47:09;;;;;;;;;;;;;;;;;;2098767;28;1092;-67
2021/10/01 06:48:17;;;;;;;;;;;;;;;;;;2098620;28;1072;-66
2021/10/01 06:49:28;;;;;;;;;;;;;;;;;;2098828;28;1121;-66
2021/10/01 06:51:01;;;;;;;;;;;;;;;;;;2097563;28;1358;-67
2021/10/01 07:22:57;;;;;;;;;;;;;;;;;;2101562;28;1902;-67
2021/10/01 07:34:34;;;;;;;;;;;;;;;;;;2099750;28;1332;-66
2021/10/01 07:36:46;;;;;;;;;;;;;;;;;;2099978;28;997;-67
2021/10/01 08:19:04;;;;;;;;;;;;;;;;;;2098238;28;981;-66
2021/10/01 08:20:05;;;;;;;;;;;;;;;;;;2098180;28;1415;-66
2021/10/01 08:21:06;;;;;;;;;;;;;;;;;;2098485;28;1116;-67
2021/10/01 08:22:08;;;;;;;;;;;;;;;;;;2098947;28;1028;-67
2021/10/01 08:23:09;;;;;;;;;;;;;;;;;;2098975;28;1910;-67
2021/10/01 08:24:12;;;;;;;;;;;;;;;;;;2097886;28;1119;-67
2021/10/01 08:25:12;;;;;;;;;;;;;;;;;;2097048;28;1150;-66
2021/10/01 08:26:13;;;;;;;;;;;;;;;;;;2099516;28;1197;-67
2021/10/01 08:27:15;;;;;;;;;;;;;;;;;;2100867;28;1064;-67
2021/10/01 08:28:16;;;;;;;;;;;;;;;;;;2101347;28;1353;-66
2021/10/01 08:29:16;;;;;;;;;;;;;;;;;;2102387;27;1199;-66
2021/10/01 08:30:17;;;;;;;;;;;;;;;;;;2103380;27;1339;-66